Time;durP1;ratioP1;P1;durP2;ratioP2;P2;SDS_P1;SDS_P2;PMS_P1;PMS_P2;Temp;Humidity;BMP_temperature;BMP_pressure;BME280_temperature;BME280_humidity;BME280_pressure;Samples;Min_cycle;Max_cycle;Signal;HPM_P1;HPM_P2
2021/12/28 00:00:14;;;;;;;;;;;5.90;99.90;;;;;;5019672;28;19918;-43
2021/12/28 00:02:40;;;;;;;;;;;6.00;99.90;;;;;;5018916;28;20003;-44
2021/12/28 00:05:07;;;;;;;;;;;5.90;99.90;;;;;;5033674;28;20335;-44
2021/12/28 00:07:32;;;;;;;;;;;5.90;99.90;;;;;;5033260;28;19916;-43
2021/12/28 00:09:58;;;;;;;;;;;6.00;99.90;;;;;;5033555;28;19909;-44
2021/12/28 00:12:23;;;;;;;;;;;6.00;99.90;;;;;;5033555;28;19909;-44
2021/12/28 00:15:02;;;;;;;;;;;6.00;99.90;;;;;;5033062;28;19948;-44
2021/12/28 00:20:12;;;;;;;;;;;6.00;99.90;;;;;;5000450;28;19975;-45
2021/12/28 00:22:37;;;;;;;;;;;6.00;99.90;;;;;;5026799;28;19909;-44
2021/12/28 00:25:04;;;;;;;;;;;6.00;99.90;;;;;;5022710;28;20368;-45
2021/12/28 00:27:30;;;;;;;;;;;6.00;99.90;;;;;;5015006;28;19921;-44
2021/12/28 00:29:55;;;;;;;;;;;6.00;99.90;;;;;;5014992;28;19909;-44
2021/12/28 00:32:21;;;;;;;;;;;6.10;99.90;;;;;;5033070;28;19932;-42
2021/12/28 00:34:46;;;;;;;;;;;6.00;99.90;;;;;;5024949;28;19936;-44
2021/12/28 00:37:12;;;;;;;;;;;6.10;99.90;;;;;;5013234;28;19913;-44
2021/12/28 00:39:37;;;;;;;;;;;6.00;99.90;;;;;;5013668;28;19909;-43
2021/12/28 00:42:03;;;;;;;;;;;6.00;99.90;;;;;;5016893;28;19917;-44
2021/12/28 00:44:28;;;;;;;;;;;6.00;99.90;;;;;;5031450;28;19909;-44
2021/12/28 00:46:54;;;;;;;;;;;6.00;99.90;;;;;;5022505;28;19921;-45
2021/12/28 00:49:19;;;;;;;;;;;6.00;99.90;;;;;;5013141;28;19913;-43
2021/12/28 00:51:45;;;;;;;;;;;6.00;99.90;;;;;;5029229;28;19927;-43
2021/12/28 00:54:10;;;;;;;;;;;6.00;99.90;;;;;;5032921;28;20544;-43
2021/12/28 00:56:36;;;;;;;;;;;6.00;99.90;;;;;;5032538;28;19923;-43
2021/12/28 00:59:01;;;;;;;;;;;6.00;99.90;;;;;;5030611;28;20368;-43
2021/12/28 01:01:27;;;;;;;;;;;6.00;99.90;;;;;;5019073;28;19971;-43
2021/12/28 01:03:52;;;;;;;;;;;6.00;99.90;;;;;;5019966;28;20260;-43
2021/12/28 01:06:18;;;;;;;;;;;6.00;99.90;;;;;;5013460;28;19909;-44
2021/12/28 01:08:43;;;;;;;;;;;6.00;99.90;;;;;;5013455;28;19936;-43
2021/12/28 01:11:09;;;;;;;;;;;6.00;99.90;;;;;;5012819;28;19913;-43
2021/12/28 01:13:34;;;;;;;;;;;6.00;99.90;;;;;;5013546;28;19905;-43
2021/12/28 01:16:00;;;;;;;;;;;6.00;99.90;;;;;;5014471;28;19945;-44
2021/12/28 01:18:25;;;;;;;;;;;6.00;99.90;;;;;;5013080;28;19905;-43
2021/12/28 01:20:51;;;;;;;;;;;6.00;99.90;;;;;;5013407;28;20280;-43
2021/12/28 01:23:17;;;;;;;;;;;6.00;99.90;;;;;;5031311;28;19913;-44
2021/12/28 01:25:43;;;;;;;;;;;6.00;99.90;;;;;;5032348;28;19913;-43
2021/12/28 01:28:09;;;;;;;;;;;6.00;99.90;;;;;;5032922;28;19905;-43
2021/12/28 01:30:35;;;;;;;;;;;6.00;99.90;;;;;;5016621;28;20360;-44
2021/12/28 01:33:01;;;;;;;;;;;6.00;99.90;;;;;;5013580;28;19927;-44
2021/12/28 01:35:28;;;;;;;;;;;6.00;99.90;;;;;;5031366;28;19916;-43
2021/12/28 01:37:54;;;;;;;;;;;6.00;99.90;;;;;;5036514;28;19913;-43
2021/12/28 01:40:21;;;;;;;;;;;6.00;99.90;;;;;;5035915;28;20040;-43
2021/12/28 01:42:53;;;;;;;;;;;6.00;99.90;;;;;;5026363;28;19915;-43
2021/12/28 01:45:28;;;;;;;;;;;6.10;99.90;;;;;;5030480;28;19909;-43
2021/12/28 01:47:53;;;;;;;;;;;6.10;99.90;;;;;;5017460;28;19909;-43
2021/12/28 01:50:19;;;;;;;;;;;6.10;99.90;;;;;;5017769;28;19913;-43
2021/12/28 01:52:44;;;;;;;;;;;6.10;99.90;;;;;;5027700;28;19919;-44
2021/12/28 01:55:10;;;;;;;;;;;6.10;99.90;;;;;;5036172;28;20004;-43
2021/12/28 01:57:35;;;;;;;;;;;6.10;99.90;;;;;;5019750;28;19921;-43
2021/12/28 02:00:01;;;;;;;;;;;6.10;99.90;;;;;;5015996;28;20324;-42
2021/12/28 02:02:26;;;;;;;;;;;6.10;99.90;;;;;;5016650;28;19979;-43
2021/12/28 02:04:52;;;;;;;;;;;6.10;99.90;;;;;;5028960;28;19920;-43
2021/12/28 02:07:17;;;;;;;;;;;6.20;99.90;;;;;;5023793;28;19977;-42
2021/12/28 02:09:43;;;;;;;;;;;6.20;99.90;;;;;;5026273;28;19909;-43
2021/12/28 02:12:08;;;;;;;;;;;6.20;99.90;;;;;;5023269;28;20004;-42
2021/12/28 02:14:35;;;;;;;;;;;6.20;99.90;;;;;;5015809;28;20011;-43
2021/12/28 02:17:01;;;;;;;;;;;6.20;99.90;;;;;;5016379;28;19906;-43
2021/12/28 02:19:26;;;;;;;;;;;6.20;99.90;;;;;;5016311;28;19910;-45
2021/12/28 02:21:52;;;;;;;;;;;6.20;99.90;;;;;;5015723;28;19914;-45
2021/12/28 02:24:17;;;;;;;;;;;6.20;99.90;;;;;;5016161;28;19910;-43
2021/12/28 02:26:43;;;;;;;;;;;6.20;99.90;;;;;;5017100;28;19995;-42
2021/12/28 02:29:08;;;;;;;;;;;6.20;99.90;;;;;;5015605;28;19916;-43
2021/12/28 02:31:34;;;;;;;;;;;6.20;99.90;;;;;;5031810;28;19944;-43
2021/12/28 02:34:01;;;;;;;;;;;6.20;99.90;;;;;;5033259;28;19915;-43
2021/12/28 02:36:27;;;;;;;;;;;6.30;99.90;;;;;;5016274;28;19912;-43
2021/12/28 02:38:52;;;;;;;;;;;6.30;99.90;;;;;;5035112;28;19996;-43
2021/12/28 02:41:18;;;;;;;;;;;6.30;99.90;;;;;;5035147;28;20568;-43
2021/12/28 02:43:47;;;;;;;;;;;6.30;99.90;;;;;;5025478;28;20316;-43
2021/12/28 02:46:15;;;;;;;;;;;6.30;99.90;;;;;;5028089;28;19963;-43
2021/12/28 02:48:41;;;;;;;;;;;6.30;99.90;;;;;;5032615;28;19941;-43
2021/12/28 02:51:08;;;;;;;;;;;6.30;99.90;;;;;;5034539;28;19905;-43
2021/12/28 02:53:34;;;;;;;;;;;6.40;99.90;;;;;;5035174;28;20377;-43
2021/12/28 02:56:00;;;;;;;;;;;6.40;99.90;;;;;;5031143;28;20000;-43
2021/12/28 02:58:26;;;;;;;;;;;6.40;99.90;;;;;;5015574;28;19905;-43
2021/12/28 03:00:53;;;;;;;;;;;6.40;99.90;;;;;;5015424;28;19944;-43
2021/12/28 03:03:23;;;;;;;;;;;6.40;99.90;;;;;;5014991;28;20492;-42
2021/12/28 03:05:50;;;;;;;;;;;6.40;99.90;;;;;;5029919;28;20413;-43
2021/12/28 03:08:17;;;;;;;;;;;6.40;99.90;;;;;;5018234;28;19923;-43
2021/12/28 03:10:43;;;;;;;;;;;6.50;99.90;;;;;;5034301;28;19987;-43
2021/12/28 03:13:12;;;;;;;;;;;6.50;99.90;;;;;;5034628;28;19991;-44
2021/12/28 03:15:38;;;;;;;;;;;6.50;99.90;;;;;;5034801;28;19964;-43
2021/12/28 03:18:03;;;;;;;;;;;6.50;99.90;;;;;;5034454;28;19948;-43
2021/12/28 03:20:29;;;;;;;;;;;6.50;99.90;;;;;;5034319;28;19917;-43
2021/12/28 03:22:54;;;;;;;;;;;6.50;99.90;;;;;;5034593;28;19912;-42
2021/12/28 03:25:20;;;;;;;;;;;6.50;99.90;;;;;;5034038;28;20283;-43
2021/12/28 03:27:46;;;;;;;;;;;6.50;99.90;;;;;;5032515;28;19970;-43
2021/12/28 03:30:13;;;;;;;;;;;6.50;99.90;;;;;;5034086;28;20384;-43
2021/12/28 03:32:39;;;;;;;;;;;6.60;99.90;;;;;;5033595;28;19909;-43
2021/12/28 03:35:05;;;;;;;;;;;6.60;99.90;;;;;;5025162;28;19917;-43
2021/12/28 03:37:31;;;;;;;;;;;6.50;99.90;;;;;;5014944;28;19906;-44
2021/12/28 03:39:58;;;;;;;;;;;6.50;99.90;;;;;;5014462;28;19909;-42
2021/12/28 03:42:23;;;;;;;;;;;6.50;99.90;;;;;;5029725;28;20341;-43
2021/12/28 03:44:49;;;;;;;;;;;6.60;99.90;;;;;;5016999;28;19909;-43
2021/12/28 03:47:14;;;;;;;;;;;6.50;99.90;;;;;;5034241;28;19909;-43
2021/12/28 03:49:40;;;;;;;;;;;6.50;99.90;;;;;;5032666;28;20379;-43
2021/12/28 03:52:06;;;;;;;;;;;6.50;99.90;;;;;;5033810;28;19909;-43
2021/12/28 03:54:32;;;;;;;;;;;6.50;99.90;;;;;;5033801;28;19909;-43
2021/12/28 03:56:58;;;;;;;;;;;6.50;99.90;;;;;;5033017;28;19921;-43
2021/12/28 03:59:24;;;;;;;;;;;6.50;99.90;;;;;;5033481;28;20480;-44
2021/12/28 04:01:49;;;;;;;;;;;6.40;99.90;;;;;;5033794;28;19917;-44
2021/12/28 04:04:14;;;;;;;;;;;6.40;99.90;;;;;;5024174;28;19936;-43
2021/12/28 04:06:40;;;;;;;;;;;6.40;99.90;;;;;;5033671;28;20432;-43
2021/12/28 04:09:07;;;;;;;;;;;6.40;99.90;;;;;;5033698;28;19913;-44
2021/12/28 04:11:33;;;;;;;;;;;6.30;99.90;;;;;;5032248;28;19905;-44
2021/12/28 04:14:00;;;;;;;;;;;6.40;99.90;;;;;;5013572;28;19932;-43
2021/12/28 04:16:26;;;;;;;;;;;6.40;99.90;;;;;;5014060;28;19932;-43
2021/12/28 04:18:52;;;;;;;;;;;6.40;99.90;;;;;;5017039;28;19962;-43
2021/12/28 04:21:18;;;;;;;;;;;6.40;99.90;;;;;;5033240;28;19913;-43
2021/12/28 04:23:43;;;;;;;;;;;6.40;99.90;;;;;;5033599;28;19905;-43
2021/12/28 04:26:10;;;;;;;;;;;6.40;99.90;;;;;;5031571;28;19909;-43
2021/12/28 04:28:35;;;;;;;;;;;6.40;99.90;;;;;;5025787;28;20495;-43
2021/12/28 04:31:01;;;;;;;;;;;6.40;99.90;;;;;;5013784;28;19915;-42
2021/12/28 04:33:27;;;;;;;;;;;6.40;99.90;;;;;;5014039;28;19910;-43
2021/12/28 04:35:52;;;;;;;;;;;6.50;99.90;;;;;;5026867;28;19909;-43
2021/12/28 04:38:18;;;;;;;;;;;6.50;99.90;;;;;;5033662;28;19959;-44
2021/12/28 04:40:43;;;;;;;;;;;6.50;99.90;;;;;;5016540;28;19965;-43
2021/12/28 04:43:10;;;;;;;;;;;6.50;99.90;;;;;;5027282;28;19955;-43
2021/12/28 04:45:37;;;;;;;;;;;6.50;99.90;;;;;;5029240;28;20366;-43
2021/12/28 04:48:03;;;;;;;;;;;6.50;99.90;;;;;;5014417;28;20297;-44
2021/12/28 04:50:29;;;;;;;;;;;6.50;99.90;;;;;;5013515;28;19913;-43
2021/12/28 04:52:57;;;;;;;;;;;6.50;99.90;;;;;;5013716;28;20418;-42
2021/12/28 04:55:22;;;;;;;;;;;6.50;99.90;;;;;;5028324;28;19912;-43
2021/12/28 04:57:48;;;;;;;;;;;6.50;99.90;;;;;;5033166;28;19924;-45
2021/12/28 05:00:18;;;;;;;;;;;6.50;99.90;;;;;;5032788;28;19917;-43
2021/12/28 05:02:44;;;;;;;;;;;6.60;99.90;;;;;;5030865;28;20356;-43
2021/12/28 05:05:10;;;;;;;;;;;6.60;99.90;;;;;;5017194;28;19910;-44
2021/12/28 05:07:36;;;;;;;;;;;6.60;99.90;;;;;;5014002;28;19905;-44
2021/12/28 05:10:02;;;;;;;;;;;6.60;99.90;;;;;;5017079;28;20361;-42
2021/12/28 05:12:28;;;;;;;;;;;6.60;99.90;;;;;;5017381;28;19909;-43
2021/12/28 05:14:53;;;;;;;;;;;6.60;99.90;;;;;;5030095;28;19909;-42
2021/12/28 05:17:19;;;;;;;;;;;6.60;99.90;;;;;;5036631;28;20011;-43
2021/12/28 05:19:44;;;;;;;;;;;6.60;99.90;;;;;;5036616;28;19920;-43
2021/12/28 05:22:12;;;;;;;;;;;6.60;99.90;;;;;;5036996;28;19939;-43
2021/12/28 05:24:38;;;;;;;;;;;6.70;99.90;;;;;;5036391;28;19913;-43
2021/12/28 05:27:03;;;;;;;;;;;6.60;99.90;;;;;;5036832;28;19905;-43
2021/12/28 05:29:29;;;;;;;;;;;6.60;99.90;;;;;;5019877;28;20380;-43
2021/12/28 05:31:54;;;;;;;;;;;6.70;99.90;;;;;;5016718;28;19909;-43
2021/12/28 05:34:20;;;;;;;;;;;6.70;99.90;;;;;;5025340;28;19912;-43
2021/12/28 05:36:46;;;;;;;;;;;6.70;99.90;;;;;;5017363;28;19960;-43
2021/12/28 05:39:12;;;;;;;;;;;6.70;99.90;;;;;;5016503;28;19910;-43
2021/12/28 05:41:37;;;;;;;;;;;6.70;99.90;;;;;;5016805;28;20000;-43
2021/12/28 05:44:03;;;;;;;;;;;6.70;99.90;;;;;;5023982;28;20012;-42
2021/12/28 05:46:29;;;;;;;;;;;6.70;99.90;;;;;;5036010;28;20001;-43
2021/12/28 05:48:54;;;;;;;;;;;6.70;99.90;;;;;;5026847;28;20102;-44
2021/12/28 05:51:19;;;;;;;;;;;6.80;99.90;;;;;;5017673;28;19909;-44
2021/12/28 05:53:45;;;;;;;;;;;6.80;99.90;;;;;;5016485;28;19967;-43
2021/12/28 05:56:10;;;;;;;;;;;6.70;99.90;;;;;;5016370;28;20000;-43
2021/12/28 05:58:36;;;;;;;;;;;6.80;99.90;;;;;;5016142;28;19906;-43
2021/12/28 06:01:01;;;;;;;;;;;6.80;99.90;;;;;;5022024;28;20012;-43
2021/12/28 06:03:27;;;;;;;;;;;6.80;99.90;;;;;;5033950;28;20364;-42
2021/12/28 06:05:52;;;;;;;;;;;6.80;99.90;;;;;;5026928;28;19916;-42
2021/12/28 06:08:18;;;;;;;;;;;6.80;99.90;;;;;;5035925;28;19905;-44
2021/12/28 06:10:43;;;;;;;;;;;6.80;99.90;;;;;;5036417;28;19905;-43
2021/12/28 06:13:09;;;;;;;;;;;6.80;99.90;;;;;;5034980;28;19909;-43
2021/12/28 06:15:34;;;;;;;;;;;6.70;99.90;;;;;;5025528;28;19919;-43
2021/12/28 06:18:00;;;;;;;;;;;6.70;99.90;;;;;;5016189;28;19905;-42
2021/12/28 06:20:25;;;;;;;;;;;6.60;99.90;;;;;;5015118;28;20367;-43
2021/12/28 06:22:51;;;;;;;;;;;6.60;99.90;;;;;;5016332;28;19913;-44
2021/12/28 06:25:16;;;;;;;;;;;6.60;99.90;;;;;;5013895;28;19933;-42
2021/12/28 06:27:42;;;;;;;;;;;6.60;99.90;;;;;;5028675;28;20000;-43
2021/12/28 06:30:07;;;;;;;;;;;6.60;99.90;;;;;;5035237;28;19909;-44
2021/12/28 06:32:33;;;;;;;;;;;6.60;99.90;;;;;;5036031;28;19959;-44
2021/12/28 06:34:59;;;;;;;;;;;6.60;99.90;;;;;;5032476;28;19916;-43
2021/12/28 06:37:24;;;;;;;;;;;6.70;99.90;;;;;;5036006;28;19925;-43
2021/12/28 06:39:49;;;;;;;;;;;6.70;99.90;;;;;;5035631;28;19909;-43
2021/12/28 06:42:15;;;;;;;;;;;6.70;99.90;;;;;;5035042;28;20276;-43
2021/12/28 06:44:43;;;;;;;;;;;6.70;99.90;;;;;;5018416;28;19970;-43
2021/12/28 06:47:09;;;;;;;;;;;6.70;99.90;;;;;;5017982;28;20368;-44
2021/12/28 06:49:34;;;;;;;;;;;6.70;99.90;;;;;;5027097;28;19956;-42
2021/12/28 06:51:59;;;;;;;;;;;6.70;99.90;;;;;;5035482;28;19905;-43
2021/12/28 06:54:25;;;;;;;;;;;6.70;99.90;;;;;;5033825;28;19992;-42
2021/12/28 06:56:50;;;;;;;;;;;6.70;99.90;;;;;;5034302;28;19963;-43
2021/12/28 06:59:16;;;;;;;;;;;6.70;99.90;;;;;;5023078;28;19909;-43
2021/12/28 07:01:42;;;;;;;;;;;6.60;99.90;;;;;;5030244;28;19924;-43
2021/12/28 07:04:07;;;;;;;;;;;6.70;99.90;;;;;;5023624;28;20083;-44
2021/12/28 07:06:33;;;;;;;;;;;6.70;99.90;;;;;;5017555;28;20454;-45
2021/12/28 07:08:58;;;;;;;;;;;6.70;99.90;;;;;;5027619;28;19909;-43
2021/12/28 07:11:24;;;;;;;;;;;6.70;99.90;;;;;;5034966;28;19905;-43
2021/12/28 07:13:49;;;;;;;;;;;6.70;99.90;;;;;;5034583;28;19905;-44
2021/12/28 07:16:15;;;;;;;;;;;6.70;99.90;;;;;;5033775;28;19912;-43
2021/12/28 07:18:40;;;;;;;;;;;6.70;99.90;;;;;;5034342;28;19960;-44
2021/12/28 07:21:06;;;;;;;;;;;6.70;99.90;;;;;;5034334;28;19916;-44
2021/12/28 07:23:32;;;;;;;;;;;6.80;99.90;;;;;;5034272;28;20343;-43
2021/12/28 07:25:57;;;;;;;;;;;6.80;99.90;;;;;;5022887;28;19909;-44
2021/12/28 07:28:24;;;;;;;;;;;6.80;99.90;;;;;;5032701;28;19959;-43
2021/12/28 07:30:50;;;;;;;;;;;6.80;99.90;;;;;;5012977;28;20380;-43
2021/12/28 07:33:15;;;;;;;;;;;6.80;99.90;;;;;;5014425;28;20380;-44
2021/12/28 07:35:41;;;;;;;;;;;6.80;99.90;;;;;;5014238;28;19951;-44
2021/12/28 07:38:06;;;;;;;;;;;6.80;99.90;;;;;;5013468;28;19909;-43
2021/12/28 07:40:32;;;;;;;;;;;6.80;99.90;;;;;;5025989;28;20256;-44
2021/12/28 07:42:58;;;;;;;;;;;6.80;99.90;;;;;;5013802;28;19905;-44
2021/12/28 07:45:23;;;;;;;;;;;6.80;99.90;;;;;;5013570;28;19905;-44
2021/12/28 07:47:49;;;;;;;;;;;6.80;99.90;;;;;;5014268;28;19909;-43
2021/12/28 07:50:15;;;;;;;;;;;6.80;99.90;;;;;;5013733;28;19909;-44
2021/12/28 07:52:42;;;;;;;;;;;6.80;99.90;;;;;;5013491;28;19905;-42
2021/12/28 07:55:07;;;;;;;;;;;6.80;99.90;;;;;;5013719;28;19928;-42
2021/12/28 07:57:34;;;;;;;;;;;6.80;99.90;;;;;;5013564;28;20264;-47
2021/12/28 08:00:00;;;;;;;;;;;6.80;99.90;;;;;;5013068;28;19905;-43
2021/12/28 08:02:25;;;;;;;;;;;6.80;99.90;;;;;;5013907;28;20320;-43
2021/12/28 08:04:51;;;;;;;;;;;6.80;99.90;;;;;;5013636;28;19906;-44
2021/12/28 08:07:16;;;;;;;;;;;6.80;99.90;;;;;;5013144;28;19917;-44
2021/12/28 08:09:41;;;;;;;;;;;6.80;99.90;;;;;;5013780;28;19956;-43
2021/12/28 08:12:07;;;;;;;;;;;6.80;99.90;;;;;;5012833;28;19969;-43
2021/12/28 08:14:33;;;;;;;;;;;6.80;99.90;;;;;;5017883;28;19909;-43
2021/12/28 08:16:58;;;;;;;;;;;6.80;99.90;;;;;;5033167;28;19905;-43
2021/12/28 08:19:24;;;;;;;;;;;6.90;99.90;;;;;;5032792;28;19974;-44
2021/12/28 08:21:49;;;;;;;;;;;6.90;99.90;;;;;;5033085;28;19913;-43
2021/12/28 08:24:15;;;;;;;;;;;6.90;99.90;;;;;;5030079;28;19913;-44
2021/12/28 08:26:40;;;;;;;;;;;6.80;99.90;;;;;;5012843;28;20357;-43
2021/12/28 08:29:05;;;;;;;;;;;6.90;99.90;;;;;;5013117;28;20048;-43
2021/12/28 08:31:32;;;;;;;;;;;6.80;99.90;;;;;;5013258;28;19952;-42
2021/12/28 08:33:59;;;;;;;;;;;6.80;99.90;;;;;;5012670;28;20351;-43
2021/12/28 08:36:24;;;;;;;;;;;6.80;99.90;;;;;;5013144;28;20000;-43
2021/12/28 08:38:50;;;;;;;;;;;6.80;99.90;;;;;;5013126;28;19992;-45
2021/12/28 08:41:17;;;;;;;;;;;6.80;99.90;;;;;;5011870;28;19918;-43
2021/12/28 08:43:42;;;;;;;;;;;6.80;99.90;;;;;;5013050;28;19906;-43
2021/12/28 08:46:08;;;;;;;;;;;6.80;99.90;;;;;;5012885;28;19905;-43
2021/12/28 08:48:33;;;;;;;;;;;6.90;99.90;;;;;;5012703;28;20326;-43
2021/12/28 08:50:59;;;;;;;;;;;6.90;99.90;;;;;;5012844;28;20008;-44
2021/12/28 08:53:26;;;;;;;;;;;6.90;99.90;;;;;;5013190;28;19905;-43
2021/12/28 08:55:51;;;;;;;;;;;6.80;99.90;;;;;;5022263;28;19908;-43
2021/12/28 08:58:17;;;;;;;;;;;6.90;99.90;;;;;;5026726;28;20265;-43
2021/12/28 09:00:42;;;;;;;;;;;6.80;99.90;;;;;;5019221;28;20009;-43
2021/12/28 09:03:08;;;;;;;;;;;6.80;99.90;;;;;;5018983;28;19910;-44
2021/12/28 09:05:35;;;;;;;;;;;6.80;99.90;;;;;;5011547;28;19905;-42
2021/12/28 09:08:04;;;;;;;;;;;6.80;99.90;;;;;;5011328;28;20391;-44
2021/12/28 09:10:29;;;;;;;;;;;6.80;99.90;;;;;;5012992;28;20448;-43
2021/12/28 09:12:55;;;;;;;;;;;6.80;99.90;;;;;;5021772;28;19913;-42
2021/12/28 09:15:20;;;;;;;;;;;6.90;99.90;;;;;;5032741;28;19916;-47
2021/12/28 09:17:46;;;;;;;;;;;6.90;99.90;;;;;;5033226;28;19916;-43
2021/12/28 09:20:16;;;;;;;;;;;6.90;99.90;;;;;;5033076;28;20000;-43
2021/12/28 09:22:42;;;;;;;;;;;6.90;99.90;;;;;;5026555;28;19916;-43
2021/12/28 09:25:08;;;;;;;;;;;7.00;99.90;;;;;;5013545;28;19913;-44
2021/12/28 09:27:33;;;;;;;;;;;6.90;99.90;;;;;;5013289;28;20386;-43
2021/12/28 09:29:59;;;;;;;;;;;7.00;99.90;;;;;;5012998;28;19905;-43
2021/12/28 09:32:24;;;;;;;;;;;7.00;99.90;;;;;;5016118;28;19905;-43
2021/12/28 09:34:53;;;;;;;;;;;7.10;99.90;;;;;;5033103;28;19909;-43
2021/12/28 09:37:19;;;;;;;;;;;7.10;99.90;;;;;;5032539;28;19928;-43
2021/12/28 09:39:45;;;;;;;;;;;7.10;99.90;;;;;;5033189;28;20356;-42
2021/12/28 09:42:10;;;;;;;;;;;7.10;99.90;;;;;;5031745;28;19913;-43
2021/12/28 09:44:36;;;;;;;;;;;7.20;99.90;;;;;;5012765;28;19917;-44
2021/12/28 09:47:03;;;;;;;;;;;7.20;99.90;;;;;;5013274;28;19909;-43
2021/12/28 09:49:28;;;;;;;;;;;7.30;99.90;;;;;;5014146;28;20349;-42
2021/12/28 09:51:55;;;;;;;;;;;7.30;99.90;;;;;;5012668;28;19916;-43
2021/12/28 09:54:27;;;;;;;;;;;7.40;99.90;;;;;;5014599;28;20417;-43
2021/12/28 09:56:55;;;;;;;;;;;7.50;99.90;;;;;;5029824;28;20371;-43
2021/12/28 09:59:21;;;;;;;;;;;7.50;99.90;;;;;;5036038;28;19905;-44
2021/12/28 10:01:46;;;;;;;;;;;7.50;99.90;;;;;;5036452;28;20406;-43
2021/12/28 10:04:12;;;;;;;;;;;7.60;99.90;;;;;;5032905;28;20275;-43
2021/12/28 10:06:37;;;;;;;;;;;7.70;99.90;;;;;;5019912;28;19909;-43
2021/12/28 10:09:03;;;;;;;;;;;7.70;99.90;;;;;;5028594;28;20008;-43
2021/12/28 10:11:32;;;;;;;;;;;7.70;99.90;;;;;;5026294;28;19909;-43
2021/12/28 10:14:14;;;;;;;;;;;7.70;99.90;;;;;;5035860;28;19905;-43
2021/12/28 10:16:44;;;;;;;;;;;7.80;99.90;;;;;;5036154;28;20234;-43
2021/12/28 10:19:28;;;;;;;;;;;7.80;99.90;;;;;;5035523;28;20327;-43
2021/12/28 10:21:54;;;;;;;;;;;7.90;99.90;;;;;;5022883;28;20339;-43
2021/12/28 10:24:34;;;;;;;;;;;7.90;99.90;;;;;;5016313;28;20435;-43
2021/12/28 10:27:12;;;;;;;;;;;7.90;99.90;;;;;;5015751;28;19959;-43
2021/12/28 10:29:38;;;;;;;;;;;7.90;99.90;;;;;;5023355;28;19912;-43
2021/12/28 10:32:17;;;;;;;;;;;7.90;99.90;;;;;;5034251;28;20008;-43
2021/12/28 10:34:56;;;;;;;;;;;8.00;99.90;;;;;;5035498;28;19912;-43
2021/12/28 10:37:26;;;;;;;;;;;8.00;99.90;;;;;;5035841;28;19905;-43
2021/12/28 10:39:56;;;;;;;;;;;8.00;99.90;;;;;;5035250;28;19908;-43
2021/12/28 10:42:40;;;;;;;;;;;8.00;99.90;;;;;;5023658;28;19917;-43
2021/12/28 10:45:07;;;;;;;;;;;8.00;99.90;;;;;;5015901;28;20296;-43
2021/12/28 10:47:32;;;;;;;;;;;8.10;99.90;;;;;;5015270;28;20005;-44
2021/12/28 10:50:01;;;;;;;;;;;8.10;99.90;;;;;;5015950;28;20333;-43
2021/12/28 10:52:36;;;;;;;;;;;8.00;99.90;;;;;;5027400;28;19913;-44
2021/12/28 10:55:18;;;;;;;;;;;8.00;99.90;;;;;;5035282;28;19905;-43
2021/12/28 10:57:44;;;;;;;;;;;8.10;99.90;;;;;;5035191;28;19944;-43
2021/12/28 11:00:25;;;;;;;;;;;8.10;99.90;;;;;;5018421;28;19909;-43
2021/12/28 11:02:53;;;;;;;;;;;8.10;99.90;;;;;;5015106;28;19910;-43
2021/12/28 11:05:34;;;;;;;;;;;8.10;99.90;;;;;;5015475;28;19912;-43
2021/12/28 11:07:59;;;;;;;;;;;8.20;99.90;;;;;;5015004;28;20420;-43
2021/12/28 11:10:26;;;;;;;;;;;8.20;99.90;;;;;;5016289;28;19997;-44
2021/12/28 11:12:51;;;;;;;;;;;8.20;99.90;;;;;;5031180;28;19928;-43
2021/12/28 11:15:20;;;;;;;;;;;8.20;99.90;;;;;;5017509;28;19916;-44
2021/12/28 11:17:46;;;;;;;;;;;8.20;99.90;;;;;;5028075;28;19909;-43
2021/12/28 11:20:12;;;;;;;;;;;8.20;99.90;;;;;;5024609;28;20410;-45
2021/12/28 11:22:37;;;;;;;;;;;8.20;99.90;;;;;;5034459;28;19916;-44
2021/12/28 11:25:15;;;;;;;;;;;8.30;99.90;;;;;;5035021;28;19999;-43
2021/12/28 11:27:41;;;;;;;;;;;8.20;99.90;;;;;;5034787;28;19932;-44
2021/12/28 11:30:13;;;;;;;;;;;8.30;99.90;;;;;;5025871;28;19906;-44
2021/12/28 11:32:38;;;;;;;;;;;8.30;99.90;;;;;;5014972;28;19916;-43
2021/12/28 11:35:06;;;;;;;;;;;8.30;99.90;;;;;;5014972;28;19910;-42
2021/12/28 11:37:32;;;;;;;;;;;8.30;99.90;;;;;;5014397;28;19905;-42
2021/12/28 11:39:59;;;;;;;;;;;8.30;99.90;;;;;;5021055;28;19987;-43
2021/12/28 11:42:25;;;;;;;;;;;8.40;99.90;;;;;;5034360;28;19923;-44
2021/12/28 11:44:54;;;;;;;;;;;8.40;99.90;;;;;;5034121;28;19932;-44
2021/12/28 11:47:20;;;;;;;;;;;8.40;99.90;;;;;;5034477;28;19925;-45
2021/12/28 11:49:46;;;;;;;;;;;8.40;99.90;;;;;;5032680;28;19905;-44
2021/12/28 11:52:13;;;;;;;;;;;8.40;99.90;;;;;;5033907;28;20335;-44
2021/12/28 11:54:46;;;;;;;;;;;8.40;99.90;;;;;;5033633;28;19981;-43
2021/12/28 11:57:14;;;;;;;;;;;8.40;99.90;;;;;;5033652;28;19955;-45
2021/12/28 11:59:40;;;;;;;;;;;8.40;99.90;;;;;;5032628;28;20340;-43
2021/12/28 12:02:08;;;;;;;;;;;8.50;99.90;;;;;;5034253;28;19917;-43
2021/12/28 12:04:34;;;;;;;;;;;8.50;99.90;;;;;;5033714;28;19931;-43
2021/12/28 12:07:00;;;;;;;;;;;8.50;99.90;;;;;;5034190;28;19904;-44
2021/12/28 12:09:26;;;;;;;;;;;8.50;99.90;;;;;;5034041;28;19908;-43
2021/12/28 12:12:11;;;;;;;;;;;8.50;99.90;;;;;;5015988;28;19924;-43
2021/12/28 12:14:51;;;;;;;;;;;8.50;99.90;;;;;;5014214;28;20261;-43
2021/12/28 12:17:43;;;;;;;;;;;8.60;99.90;;;;;;5013699;28;20353;-43
2021/12/28 12:20:22;;;;;;;;;;;8.50;99.90;;;;;;5017671;28;20314;-44
2021/12/28 12:22:51;;;;;;;;;;;8.50;99.90;;;;;;5024282;28;20019;-44
2021/12/28 12:25:31;;;;;;;;;;;8.50;99.90;;;;;;5025773;28;19909;-44
2021/12/28 12:28:04;;;;;;;;;;;8.60;99.90;;;;;;5016170;28;19983;-44
2021/12/28 12:30:29;;;;;;;;;;;8.60;99.90;;;;;;4994442;28;19906;-44
2021/12/28 12:32:58;;;;;;;;;;;8.60;99.90;;;;;;4993999;28;20285;-43
2021/12/28 12:35:32;;;;;;;;;;;8.60;99.90;;;;;;4994467;28;19912;-43
2021/12/28 12:38:02;;;;;;;;;;;8.60;99.90;;;;;;4994272;28;19913;-43
2021/12/28 12:40:46;;;;;;;;;;;8.60;99.90;;;;;;5032981;28;19955;-44
2021/12/28 12:43:13;;;;;;;;;;;8.60;99.90;;;;;;5033660;28;20016;-44
2021/12/28 12:46:05;;;;;;;;;;;8.60;99.90;;;;;;5033580;28;19975;-44
2021/12/28 12:48:36;;;;;;;;;;;8.60;99.90;;;;;;5027391;28;20396;-43
2021/12/28 12:53:47;;;;;;;;;;;8.60;99.90;;;;;;5013407;28;19959;-43
2021/12/28 12:56:13;;;;;;;;;;;8.60;99.90;;;;;;5013364;28;19905;-44
2021/12/28 12:58:40;;;;;;;;;;;8.60;99.90;;;;;;5014766;28;20254;-43
2021/12/28 13:01:06;;;;;;;;;;;8.70;99.90;;;;;;5013279;28;19920;-43
2021/12/28 13:03:33;;;;;;;;;;;8.70;99.90;;;;;;5013615;28;19909;-43
2021/12/28 13:06:00;;;;;;;;;;;8.70;99.90;;;;;;5013716;28;19909;-43
2021/12/28 13:08:25;;;;;;;;;;;8.70;99.90;;;;;;5013902;28;19906;-43
2021/12/28 13:10:51;;;;;;;;;;;8.70;99.90;;;;;;5033258;28;19996;-42
2021/12/28 13:13:17;;;;;;;;;;;8.70;99.90;;;;;;5033150;28;19912;-43
2021/12/28 13:15:42;;;;;;;;;;;8.70;99.90;;;;;;5032815;28;20245;-44
2021/12/28 13:18:08;;;;;;;;;;;8.70;99.90;;;;;;5033194;28;19912;-43
2021/12/28 13:20:34;;;;;;;;;;;8.70;99.90;;;;;;5031419;28;19974;-43
2021/12/28 13:23:09;;;;;;;;;;;8.70;99.90;;;;;;5032746;28;19913;-43
2021/12/28 13:25:36;;;;;;;;;;;8.70;99.90;;;;;;5033327;28;19909;-43
2021/12/28 13:28:05;;;;;;;;;;;8.70;99.90;;;;;;5033241;28;20356;-43
2021/12/28 13:30:32;;;;;;;;;;;8.60;99.90;;;;;;5018286;28;19906;-44
2021/12/28 13:32:59;;;;;;;;;;;8.70;99.90;;;;;;5027471;28;20008;-43
2021/12/28 13:35:28;;;;;;;;;;;8.70;99.90;;;;;;5018064;28;19988;-43
2021/12/28 13:37:54;;;;;;;;;;;8.70;99.90;;;;;;5032162;28;20410;-43
2021/12/28 13:40:28;;;;;;;;;;;8.70;99.90;;;;;;5036839;28;19904;-43
2021/12/28 13:43:00;;;;;;;;;;;8.70;99.90;;;;;;5036213;28;19913;-43
2021/12/28 13:45:33;;;;;;;;;;;8.70;99.90;;;;;;5036808;28;19909;-43
2021/12/28 13:48:00;;;;;;;;;;;8.70;99.90;;;;;;5020894;28;20004;-44
2021/12/28 13:50:26;;;;;;;;;;;8.70;99.90;;;;;;5016487;28;20005;-43
2021/12/28 13:52:57;;;;;;;;;;;8.70;99.90;;;;;;5017018;28;19913;-43
2021/12/28 13:55:49;;;;;;;;;;;8.70;99.90;;;;;;5016930;28;19932;-43
2021/12/28 13:58:19;;;;;;;;;;;8.70;99.90;;;;;;5015724;28;20380;-43
2021/12/28 14:00:47;;;;;;;;;;;8.70;99.90;;;;;;5016883;28;19924;-43
2021/12/28 14:03:12;;;;;;;;;;;8.70;99.90;;;;;;5016757;28;20377;-43
2021/12/28 14:05:38;;;;;;;;;;;8.70;99.90;;;;;;5016135;28;19913;-43
2021/12/28 14:08:04;;;;;;;;;;;8.60;99.90;;;;;;5017565;28;19916;-43
2021/12/28 14:10:34;;;;;;;;;;;8.60;99.90;;;;;;5016610;28;19945;-43
2021/12/28 14:13:04;;;;;;;;;;;8.70;99.90;;;;;;5015866;28;19909;-43
2021/12/28 14:15:30;;;;;;;;;;;8.60;99.90;;;;;;5016505;28;20345;-43
2021/12/28 14:17:56;;;;;;;;;;;8.60;99.90;;;;;;5028045;28;19913;-44
2021/12/28 14:20:28;;;;;;;;;;;8.60;99.90;;;;;;5036095;28;19909;-43
2021/12/28 14:22:54;;;;;;;;;;;8.60;99.90;;;;;;5036109;28;20383;-43
2021/12/28 14:25:20;;;;;;;;;;;8.60;99.90;;;;;;5035540;28;19944;-43
2021/12/28 14:27:53;;;;;;;;;;;8.60;99.90;;;;;;5034005;28;19955;-42
2021/12/28 14:30:18;;;;;;;;;;;8.60;99.90;;;;;;5036132;28;19999;-44
2021/12/28 14:32:45;;;;;;;;;;;8.60;99.90;;;;;;5035486;28;20056;-43
2021/12/28 14:35:12;;;;;;;;;;;8.60;99.90;;;;;;5035766;28;19905;-43